createdAt,value
2023-06-11T00:00:49.279Z,99.90
2023-06-11T00:03:22.688Z,99.90
2023-06-11T00:05:49.785Z,99.90
2023-06-11T00:08:16.771Z,99.90
2023-06-11T00:10:43.668Z,99.90
2023-06-11T00:13:10.841Z,99.90
2023-06-11T00:15:37.732Z,99.90
2023-06-11T00:18:06.386Z,99.90
2023-06-11T00:20:34.139Z,99.90
2023-06-11T00:23:01.157Z,99.90
2023-06-11T00:25:28.065Z,99.90
2023-06-11T00:27:54.930Z,99.90
2023-06-11T00:30:21.905Z,99.90
2023-06-11T00:32:48.876Z,99.90
2023-06-11T00:35:16.145Z,99.90
2023-06-11T00:37:43.333Z,99.90
2023-06-11T00:40:10.703Z,99.90
2023-06-11T00:42:38.070Z,99.90
2023-06-11T00:45:05.417Z,99.90
2023-06-11T00:47:33.649Z,99.90
2023-06-11T00:50:01.788Z,99.90
2023-06-11T00:52:28.841Z,99.90
2023-06-11T00:54:57.928Z,99.90
2023-06-11T00:57:27.353Z,99.90
2023-06-11T00:59:57.007Z,99.90
2023-06-11T01:02:29.742Z,99.90
2023-06-11T01:04:59.837Z,99.90
2023-06-11T01:07:31.550Z,99.90
2023-06-11T01:09:59.430Z,99.90
2023-06-11T01:12:26.717Z,99.90
2023-06-11T01:14:53.966Z,99.90
2023-06-11T01:17:25.931Z,99.90
2023-06-11T01:19:59.759Z,99.90
2023-06-11T01:22:50.456Z,99.90
2023-06-11T01:25:31.812Z,99.90
2023-06-11T01:28:13.596Z,99.90
2023-06-11T01:30:49.747Z,99.90
2023-06-11T01:33:20.057Z,99.90
2023-06-11T01:35:50.229Z,99.90
2023-06-11T01:38:17.293Z,99.90
2023-06-11T01:40:44.296Z,99.90
2023-06-11T01:43:11.229Z,99.90
2023-06-11T01:45:39.769Z,99.90
2023-06-11T01:48:07.382Z,99.90
2023-06-11T01:50:34.857Z,99.90
2023-06-11T01:53:02.147Z,99.90
2023-06-11T01:55:29.129Z,99.90
2023-06-11T01:57:56.704Z,99.90
2023-06-11T02:00:24.084Z,99.90
2023-06-11T02:02:51.163Z,99.90
2023-06-11T02:05:18.335Z,99.90
2023-06-11T02:07:45.282Z,99.90
2023-06-11T02:10:12.599Z,99.90
2023-06-11T02:12:39.512Z,99.90
2023-06-11T02:15:07.486Z,99.90
2023-06-11T02:17:34.575Z,99.90
2023-06-11T02:20:01.948Z,99.90
2023-06-11T02:22:28.890Z,99.90
2023-06-11T02:24:55.885Z,99.90
2023-06-11T02:27:22.931Z,99.90
2023-06-11T02:29:49.945Z,99.90
2023-06-11T02:32:17.050Z,99.90
2023-06-11T02:34:44.066Z,99.90
2023-06-11T02:37:11.035Z,99.90
2023-06-11T02:39:37.973Z,99.90
2023-06-11T02:42:05.354Z,99.90
2023-06-11T02:44:32.643Z,99.90
2023-06-11T02:46:59.569Z,99.90
2023-06-11T02:49:26.477Z,99.90
2023-06-11T02:51:53.459Z,99.90
2023-06-11T02:54:20.431Z,99.90
2023-06-11T02:56:47.305Z,99.90
2023-06-11T02:59:14.336Z,99.90
2023-06-11T03:01:42.071Z,99.90
2023-06-11T03:04:09.123Z,99.90
2023-06-11T03:06:36.665Z,99.90
2023-06-11T03:09:03.676Z,99.90
2023-06-11T03:11:30.602Z,99.90
2023-06-11T03:13:58.772Z,99.90
2023-06-11T03:16:26.011Z,99.90
2023-06-11T03:18:52.968Z,99.90
2023-06-11T03:21:19.982Z,99.90
2023-06-11T03:23:46.998Z,99.90
2023-06-11T03:26:13.955Z,99.90
2023-06-11T03:28:40.842Z,99.90
2023-06-11T03:31:07.863Z,99.90
2023-06-11T03:33:34.855Z,99.90
2023-06-11T03:36:01.791Z,99.90
2023-06-11T03:38:28.777Z,99.90
2023-06-11T03:40:55.807Z,99.90
2023-06-11T03:43:22.686Z,99.90
2023-06-11T03:45:49.612Z,99.90
2023-06-11T03:48:16.502Z,99.90
2023-06-11T03:50:43.519Z,99.90
2023-06-11T03:53:10.586Z,99.90
2023-06-11T03:55:37.572Z,99.90
2023-06-11T03:58:04.483Z,99.90
2023-06-11T04:00:33.356Z,99.90
2023-06-11T04:03:00.901Z,99.90
2023-06-11T04:05:27.946Z,99.90
2023-06-11T04:07:54.903Z,99.90
2023-06-11T04:10:23.684Z,99.90
2023-06-11T04:12:50.784Z,99.90
2023-06-11T04:15:17.643Z,99.90
2023-06-11T04:17:44.537Z,99.90
2023-06-11T04:20:12.001Z,99.90
2023-06-11T04:22:38.869Z,99.90
2023-06-11T04:25:07.700Z,99.90
2023-06-11T04:27:35.028Z,99.90
2023-06-11T04:30:03.612Z,99.90
2023-06-11T04:32:35.867Z,99.90
2023-06-11T04:35:04.144Z,99.90
2023-06-11T04:37:39.214Z,99.90
2023-06-11T04:40:13.144Z,99.90
2023-06-11T04:42:43.438Z,99.90
2023-06-11T04:45:11.716Z,99.90
2023-06-11T04:47:38.988Z,99.90
2023-06-11T04:50:07.695Z,99.90
2023-06-11T04:52:44.192Z,99.90
2023-06-11T04:55:13.498Z,99.90
2023-06-11T04:57:41.028Z,99.90
2023-06-11T05:00:09.582Z,99.90
2023-06-11T05:02:38.725Z,99.90
2023-06-11T05:05:09.099Z,99.90
2023-06-11T05:07:36.444Z,99.90
2023-06-11T05:10:03.504Z,99.90
2023-06-11T05:12:30.444Z,99.90
2023-06-11T05:14:57.303Z,99.90
2023-06-11T05:17:24.281Z,99.90
2023-06-11T05:19:52.443Z,99.90
2023-06-11T05:22:20.805Z,99.90
2023-06-11T05:24:48.938Z,99.90
2023-06-11T05:27:16.183Z,99.90
2023-06-11T05:29:45.903Z,99.90
2023-06-11T05:32:16.054Z,99.90
2023-06-11T05:34:44.423Z,99.90
2023-06-11T05:37:11.479Z,99.90
2023-06-11T05:39:38.388Z,99.90
2023-06-11T05:42:05.595Z,99.90
2023-06-11T05:44:32.520Z,99.90
2023-06-11T05:46:59.613Z,99.90
2023-06-11T05:49:26.580Z,99.90
2023-06-11T05:51:53.726Z,99.90
2023-06-11T05:54:20.876Z,99.90
2023-06-11T05:56:47.839Z,99.90
2023-06-11T05:59:14.824Z,99.90
2023-06-11T06:01:46.577Z,99.90
2023-06-11T06:04:15.354Z,99.90
2023-06-11T06:06:42.467Z,99.90
2023-06-11T06:09:10.317Z,99.90
2023-06-11T06:11:37.378Z,99.90
2023-06-11T06:14:04.313Z,99.90
2023-06-11T06:16:32.889Z,99.90
2023-06-11T06:19:00.272Z,99.90
2023-06-11T06:21:27.303Z,99.90
2023-06-11T06:23:54.454Z,99.90
2023-06-11T06:26:21.678Z,99.90
2023-06-11T06:28:48.612Z,99.90
2023-06-11T06:31:15.718Z,99.90
2023-06-11T06:33:42.682Z,99.90
2023-06-11T06:36:09.600Z,99.90
2023-06-11T06:38:37.677Z,99.90
2023-06-11T06:41:04.928Z,99.90
2023-06-11T06:43:31.954Z,99.90
2023-06-11T06:45:58.894Z,99.90
2023-06-11T06:48:26.517Z,99.90
2023-06-11T06:50:53.568Z,99.90
2023-06-11T06:53:20.660Z,99.90
2023-06-11T06:55:50.050Z,99.90
2023-06-11T06:58:19.280Z,99.90
2023-06-11T07:00:46.365Z,99.90
2023-06-11T07:03:15.244Z,99.90
2023-06-11T07:05:42.717Z,99.90
2023-06-11T07:08:11.638Z,99.90
2023-06-11T07:10:39.178Z,99.90
2023-06-11T07:13:06.747Z,99.90
2023-06-11T07:15:33.708Z,99.90
2023-06-11T07:18:00.848Z,99.90
2023-06-11T07:20:27.924Z,99.90
2023-06-11T07:22:54.974Z,99.90
2023-06-11T07:25:21.886Z,99.90
2023-06-11T07:27:48.938Z,99.90
2023-06-11T07:30:15.925Z,99.90
2023-06-11T07:32:42.996Z,99.90
2023-06-11T07:35:10.017Z,99.90
2023-06-11T07:37:36.897Z,99.90
2023-06-11T07:40:05.891Z,99.90
2023-06-11T07:42:32.775Z,99.90
2023-06-11T07:44:59.734Z,99.90
2023-06-11T07:47:26.703Z,99.90
2023-06-11T07:49:53.612Z,99.90
2023-06-11T07:52:20.608Z,99.90
2023-06-11T07:54:48.021Z,99.90
2023-06-11T07:57:15.151Z,99.90
2023-06-11T07:59:44.628Z,99.90
2023-06-11T08:02:12.562Z,99.90
2023-06-11T08:04:40.098Z,99.90
2023-06-11T08:07:07.108Z,99.90
2023-06-11T08:09:38.039Z,99.90
2023-06-11T08:12:07.104Z,99.90
2023-06-11T08:14:34.886Z,99.90
2023-06-11T08:17:02.282Z,99.90
2023-06-11T08:19:30.139Z,99.90
2023-06-11T08:21:57.424Z,99.90
2023-06-11T08:24:24.556Z,99.90
2023-06-11T08:26:51.748Z,99.90
2023-06-11T08:29:18.735Z,99.90
2023-06-11T08:31:45.851Z,99.90
2023-06-11T08:34:12.804Z,99.90
2023-06-11T08:36:41.980Z,99.90
2023-06-11T08:39:09.005Z,99.90
2023-06-11T08:41:37.303Z,99.90
2023-06-11T08:44:04.378Z,99.90
2023-06-11T08:46:36.689Z,99.90
2023-06-11T08:49:08.496Z,99.90
2023-06-11T08:51:39.436Z,99.90
2023-06-11T08:54:10.630Z,99.90
2023-06-11T08:56:37.954Z,99.90
2023-06-11T08:59:04.970Z,99.90
2023-06-11T09:01:32.826Z,99.90
2023-06-11T09:04:00.715Z,99.90
2023-06-11T09:06:29.386Z,99.90
2023-06-11T09:09:01.099Z,99.90
2023-06-11T09:11:35.738Z,99.90
2023-06-11T09:14:03.998Z,99.90
2023-06-11T09:16:43.088Z,99.90
2023-06-11T09:19:15.286Z,99.90
2023-06-11T09:21:51.220Z,99.90
2023-06-11T09:24:19.043Z,99.90
2023-06-11T09:26:59.504Z,99.90
2023-06-11T09:29:28.746Z,99.90
2023-06-11T09:32:10.082Z,99.90
2023-06-11T09:34:41.471Z,99.90
2023-06-11T09:37:12.356Z,99.90
2023-06-11T09:39:43.032Z,99.90
2023-06-11T09:42:24.532Z,99.90
2023-06-11T09:44:52.466Z,99.90
2023-06-11T09:47:20.028Z,99.90
2023-06-11T09:49:47.010Z,99.90
2023-06-11T09:52:15.380Z,99.90
2023-06-11T09:54:44.180Z,99.90
2023-06-11T09:57:12.382Z,99.90
2023-06-11T09:59:41.716Z,99.90
2023-06-11T10:02:09.398Z,99.90
2023-06-11T10:04:36.702Z,99.40
2023-06-11T10:07:06.182Z,99.90
2023-06-11T10:09:34.411Z,99.90
2023-06-11T10:12:02.287Z,99.20
2023-06-11T10:14:31.587Z,98.50
2023-06-11T10:16:58.666Z,97.90
2023-06-11T10:19:37.366Z,98.90
2023-06-11T10:22:04.385Z,96.10
2023-06-11T10:24:31.418Z,97.00
2023-06-11T10:27:15.567Z,96.50
2023-06-11T10:29:47.821Z,97.80
2023-06-11T10:32:16.732Z,98.80
2023-06-11T10:34:44.660Z,99.90
2023-06-11T10:37:13.256Z,99.90
2023-06-11T10:39:55.715Z,98.20
2023-06-11T10:42:28.349Z,98.40
2023-06-11T10:44:59.443Z,97.60
2023-06-11T10:47:28.190Z,98.80
2023-06-11T10:50:09.730Z,99.90
2023-06-11T10:52:57.205Z,98.60
2023-06-11T10:55:27.541Z,98.20
2023-06-11T10:57:55.278Z,98.60
2023-06-11T11:00:23.200Z,98.90
2023-06-11T11:02:51.883Z,99.80
2023-06-11T11:05:18.925Z,99.90
2023-06-11T11:07:47.238Z,99.90
2023-06-11T11:10:20.243Z,99.90
2023-06-11T11:12:48.902Z,99.90
2023-06-11T11:15:16.854Z,99.90
2023-06-11T11:17:45.335Z,99.90
2023-06-11T11:20:15.298Z,98.60
2023-06-11T11:22:42.321Z,99.40
2023-06-11T11:25:09.609Z,99.60
2023-06-11T11:27:39.201Z,99.90
2023-06-11T11:30:07.479Z,99.90
2023-06-11T11:32:35.586Z,99.70
2023-06-11T11:35:04.687Z,98.40
2023-06-11T11:37:31.902Z,99.00
2023-06-11T11:40:07.700Z,99.60
2023-06-11T11:42:57.020Z,99.10
2023-06-11T11:45:31.600Z,98.20
2023-06-11T11:48:01.209Z,99.10
2023-06-11T11:50:35.007Z,98.90
2023-06-11T11:53:05.910Z,98.20
2023-06-11T11:55:52.248Z,98.50
2023-06-11T11:58:28.004Z,97.70
2023-06-11T12:00:57.826Z,97.70
2023-06-11T12:03:25.932Z,97.80
2023-06-11T12:06:00.537Z,97.20
2023-06-11T12:08:29.726Z,96.60
2023-06-11T12:10:58.001Z,96.50
2023-06-11T12:13:25.439Z,95.70
2023-06-11T12:15:52.690Z,96.00
2023-06-11T12:18:19.842Z,96.40
2023-06-11T12:20:47.889Z,96.70
2023-06-11T12:23:15.567Z,96.40
2023-06-11T12:25:43.747Z,96.20
2023-06-11T12:28:10.843Z,96.60
2023-06-11T12:30:37.930Z,97.30
2023-06-11T12:33:05.084Z,97.10
2023-06-11T12:35:32.167Z,96.90
2023-06-11T12:37:59.468Z,96.90
2023-06-11T12:40:28.420Z,96.60
2023-06-11T12:42:59.924Z,96.50
2023-06-11T12:45:34.003Z,97.10
2023-06-11T12:48:01.499Z,96.90
2023-06-11T12:50:28.886Z,97.30
2023-06-11T12:52:56.592Z,97.30
2023-06-11T12:55:25.600Z,97.00
2023-06-11T12:57:52.775Z,97.10
2023-06-11T13:00:20.108Z,96.30
2023-06-11T13:02:47.368Z,97.30
2023-06-11T13:05:14.419Z,96.30
2023-06-11T13:07:41.354Z,96.40
2023-06-11T13:10:09.175Z,96.40
2023-06-11T13:12:36.423Z,96.70
2023-06-11T13:15:03.523Z,95.90
2023-06-11T13:17:30.561Z,95.80
2023-06-11T13:19:57.487Z,96.20
2023-06-11T13:22:24.516Z,95.60
2023-06-11T13:24:51.508Z,95.30
2023-06-11T13:27:18.423Z,95.30
2023-06-11T13:29:45.458Z,95.70
2023-06-11T13:32:12.431Z,95.10
2023-06-11T13:34:39.890Z,94.20
2023-06-11T13:37:07.137Z,94.70
2023-06-11T13:39:34.399Z,94.60
2023-06-11T13:42:01.785Z,94.40
2023-06-11T13:44:28.950Z,94.50
2023-06-11T13:46:55.950Z,95.10
2023-06-11T13:49:24.214Z,95.20
2023-06-11T13:51:52.869Z,95.60
2023-06-11T13:54:19.781Z,95.30
2023-06-11T13:56:47.124Z,95.00
2023-06-11T13:59:14.112Z,95.70
2023-06-11T14:01:41.028Z,95.70
2023-06-11T14:04:09.062Z,96.30
2023-06-11T14:06:37.818Z,95.90
2023-06-11T14:09:05.551Z,96.10
2023-06-11T14:11:32.662Z,96.50
2023-06-11T14:14:00.435Z,96.30
2023-06-11T14:16:28.317Z,96.20
2023-06-11T14:18:55.305Z,95.00
2023-06-11T14:21:22.311Z,94.40
2023-06-11T14:23:49.362Z,96.10
2023-06-11T14:26:16.349Z,96.20
2023-06-11T14:28:43.240Z,95.10
2023-06-11T14:31:10.224Z,95.90
2023-06-11T14:33:37.365Z,96.00
2023-06-11T14:36:06.347Z,96.00
2023-06-11T14:38:34.491Z,96.50
2023-06-11T14:41:01.519Z,97.30
2023-06-11T14:43:28.643Z,96.80
2023-06-11T14:45:55.626Z,97.50
2023-06-11T14:48:22.662Z,97.60
2023-06-11T14:50:49.742Z,97.90
2023-06-11T14:53:16.850Z,98.20
2023-06-11T14:55:44.427Z,98.70
2023-06-11T14:58:11.600Z,99.10
2023-06-11T15:00:38.707Z,99.20
2023-06-11T15:03:09.799Z,99.50
2023-06-11T15:05:40.452Z,99.50
2023-06-11T15:08:07.408Z,99.80
2023-06-11T15:10:34.380Z,99.80
2023-06-11T15:13:01.327Z,99.50
2023-06-11T15:15:28.276Z,99.00
2023-06-11T15:17:55.232Z,99.40
2023-06-11T15:20:22.191Z,99.60
2023-06-11T15:22:49.118Z,99.50
2023-06-11T15:25:16.075Z,99.90
2023-06-11T15:27:43.135Z,98.90
2023-06-11T15:30:10.606Z,95.10
2023-06-11T15:32:37.809Z,93.00
2023-06-11T15:35:06.210Z,92.70
2023-06-11T15:37:33.132Z,91.80
2023-06-11T15:40:00.223Z,92.10
2023-06-11T15:42:27.198Z,92.10
2023-06-11T15:44:54.067Z,91.20
2023-06-11T15:47:21.061Z,90.70
2023-06-11T15:49:48.245Z,89.80
2023-06-11T15:52:15.270Z,89.00
2023-06-11T15:54:42.328Z,89.40
2023-06-11T15:57:09.593Z,88.00
2023-06-11T15:59:36.547Z,90.00
2023-06-11T16:02:03.753Z,88.40
2023-06-11T16:04:34.494Z,89.10
2023-06-11T16:07:01.825Z,90.00
2023-06-11T16:09:29.199Z,89.10
2023-06-11T16:11:56.149Z,89.60
2023-06-11T16:14:23.190Z,89.50
2023-06-11T16:16:50.565Z,88.80
2023-06-11T16:19:18.318Z,89.90
2023-06-11T16:21:45.540Z,90.20
2023-06-11T16:24:13.043Z,90.60
2023-06-11T16:26:40.156Z,90.40
2023-06-11T16:29:07.196Z,91.10
2023-06-11T16:31:34.188Z,90.10
2023-06-11T16:34:02.106Z,90.80
2023-06-11T16:36:30.179Z,91.60
2023-06-11T16:39:06.224Z,92.20
2023-06-11T16:41:45.628Z,92.60
2023-06-11T16:44:12.638Z,93.20
2023-06-11T16:46:39.703Z,92.60
2023-06-11T16:49:06.884Z,93.60
2023-06-11T16:51:33.884Z,94.90
2023-06-11T16:54:00.871Z,95.10
2023-06-11T16:56:27.801Z,94.60
2023-06-11T16:58:56.166Z,94.90
2023-06-11T17:01:24.590Z,95.40
2023-06-11T17:03:51.771Z,94.60
2023-06-11T17:06:18.739Z,95.50
2023-06-11T17:08:45.915Z,95.60
2023-06-11T17:11:12.962Z,95.80
2023-06-11T17:13:39.935Z,96.30
2023-06-11T17:16:07.344Z,96.70
2023-06-11T17:18:37.307Z,97.10
2023-06-11T17:21:07.393Z,97.40
2023-06-11T17:23:34.493Z,97.30
2023-06-11T17:26:01.537Z,97.40
2023-06-11T17:28:28.597Z,97.40
2023-06-11T17:30:56.203Z,97.80
2023-06-11T17:33:23.220Z,98.10
2023-06-11T17:35:52.779Z,98.30
2023-06-11T17:38:19.873Z,98.60
2023-06-11T17:40:46.803Z,98.90
2023-06-11T17:43:13.727Z,99.10
2023-06-11T17:45:40.780Z,99.00
2023-06-11T17:48:07.899Z,99.40
2023-06-11T17:50:34.936Z,99.80
2023-06-11T17:53:02.610Z,99.90
2023-06-11T17:55:29.616Z,99.90
2023-06-11T17:57:57.201Z,99.90
2023-06-11T18:00:24.326Z,99.90
2023-06-11T18:02:52.207Z,99.90
2023-06-11T18:05:19.303Z,99.90
2023-06-11T18:07:47.379Z,99.90
2023-06-11T18:10:16.200Z,99.90
2023-06-11T18:12:45.514Z,99.90
2023-06-11T18:17:42.989Z,99.90
2023-06-11T18:20:10.444Z,99.90
2023-06-11T18:22:37.446Z,99.90
2023-06-11T18:25:05.223Z,99.90
2023-06-11T18:27:32.291Z,99.90
2023-06-11T18:29:59.191Z,99.90
2023-06-11T18:32:26.187Z,99.90
2023-06-11T18:34:53.143Z,99.90
2023-06-11T18:37:20.064Z,99.90
2023-06-11T18:39:47.052Z,99.90
2023-06-11T18:42:17.777Z,99.90
2023-06-11T18:44:45.847Z,99.90
2023-06-11T18:47:13.698Z,99.90
2023-06-11T18:49:40.911Z,99.90
2023-06-11T18:52:09.512Z,99.90
2023-06-11T18:54:36.866Z,99.90
2023-06-11T18:57:06.245Z,99.90
2023-06-11T18:59:33.269Z,99.90
2023-06-11T19:02:00.203Z,99.90
2023-06-11T19:04:28.050Z,99.90
2023-06-11T19:06:55.346Z,99.90
2023-06-11T19:09:22.499Z,99.90
2023-06-11T19:11:49.400Z,99.90
2023-06-11T19:14:16.390Z,99.90
2023-06-11T19:16:44.647Z,99.90
2023-06-11T19:19:11.726Z,99.90
2023-06-11T19:21:38.607Z,99.90
2023-06-11T19:24:05.863Z,99.90
2023-06-11T19:26:32.900Z,99.90
2023-06-11T19:28:59.974Z,99.90
2023-06-11T19:31:26.913Z,99.90
2023-06-11T19:33:53.878Z,99.90
2023-06-11T19:36:20.955Z,99.90
2023-06-11T19:38:47.957Z,99.90
2023-06-11T19:41:15.817Z,99.90
2023-06-11T19:43:43.045Z,99.90
2023-06-11T19:46:10.140Z,99.90
2023-06-11T19:48:37.053Z,99.90
2023-06-11T19:51:03.989Z,99.90
2023-06-11T19:53:31.007Z,99.90
2023-06-11T19:55:57.923Z,99.90
2023-06-11T19:58:24.826Z,99.90
2023-06-11T20:00:51.701Z,99.90
2023-06-11T20:03:18.718Z,99.90
2023-06-11T20:05:45.897Z,99.90
2023-06-11T20:08:14.995Z,99.90
2023-06-11T20:10:44.944Z,99.90
2023-06-11T20:13:11.838Z,99.90
2023-06-11T20:15:38.879Z,99.90
2023-06-11T20:18:05.860Z,99.90
2023-06-11T20:20:32.874Z,99.90
2023-06-11T20:22:59.820Z,99.90
2023-06-11T20:25:28.864Z,99.90
2023-06-11T20:27:55.789Z,99.90
2023-06-11T20:30:23.534Z,99.90
2023-06-11T20:32:50.590Z,99.90
2023-06-11T20:35:17.766Z,99.90
2023-06-11T20:37:44.683Z,99.90
2023-06-11T20:40:12.211Z,99.90
2023-06-11T20:42:40.910Z,99.90
2023-06-11T20:45:08.912Z,99.90
2023-06-11T20:47:36.195Z,99.90
2023-06-11T20:50:03.815Z,99.90
2023-06-11T20:52:31.052Z,99.90
2023-06-11T20:54:57.991Z,99.90
2023-06-11T20:57:24.903Z,99.90
2023-06-11T20:59:51.805Z,99.90
2023-06-11T21:02:18.954Z,99.90
2023-06-11T21:04:45.909Z,99.90
2023-06-11T21:07:12.881Z,99.90
2023-06-11T21:09:39.834Z,99.90
2023-06-11T21:12:07.205Z,99.90
2023-06-11T21:14:34.143Z,99.90
2023-06-11T21:17:01.103Z,99.90
2023-06-11T21:19:28.044Z,99.90
2023-06-11T21:21:55.009Z,99.90
2023-06-11T21:24:22.053Z,99.90
2023-06-11T21:26:49.231Z,99.90
2023-06-11T21:29:16.220Z,99.90
2023-06-11T21:31:44.032Z,99.90
2023-06-11T21:34:11.096Z,99.90
2023-06-11T21:36:38.260Z,99.90
2023-06-11T21:39:05.146Z,99.90
2023-06-11T21:41:32.049Z,99.90
2023-06-11T21:43:59.004Z,99.90
2023-06-11T21:46:26.077Z,99.90
2023-06-11T21:48:53.050Z,99.90
2023-06-11T21:51:21.235Z,99.90
2023-06-11T21:53:48.136Z,99.90
2023-06-11T21:56:15.104Z,99.90
2023-06-11T21:58:42.106Z,99.90
2023-06-11T22:01:09.079Z,99.90
2023-06-11T22:03:36.067Z,99.90
2023-06-11T22:06:04.216Z,99.90
2023-06-11T22:08:31.485Z,99.90
2023-06-11T22:10:58.395Z,99.90
2023-06-11T22:13:25.380Z,99.90
2023-06-11T22:15:52.324Z,99.90
2023-06-11T22:18:22.841Z,99.90
2023-06-11T22:20:49.987Z,99.90
2023-06-11T22:23:17.375Z,99.90
2023-06-11T22:25:44.267Z,99.90
2023-06-11T22:28:11.164Z,99.90
2023-06-11T22:30:48.177Z,99.90
2023-06-11T22:33:23.658Z,99.90
2023-06-11T22:35:50.586Z,99.90
2023-06-11T22:38:17.466Z,99.90
2023-06-11T22:40:44.421Z,99.90
2023-06-11T22:43:11.675Z,99.90
2023-06-11T22:45:38.637Z,99.90
2023-06-11T22:48:06.547Z,99.90
2023-06-11T22:50:35.093Z,99.90
2023-06-11T22:53:03.569Z,99.90
2023-06-11T22:55:30.522Z,99.90
2023-06-11T22:57:57.462Z,99.90
2023-06-11T23:00:24.390Z,99.90
2023-06-11T23:02:51.499Z,99.90
2023-06-11T23:05:18.566Z,99.90
2023-06-11T23:07:47.714Z,99.90
2023-06-11T23:10:18.053Z,99.90
2023-06-11T23:12:44.965Z,99.90
2023-06-11T23:15:11.998Z,99.90
2023-06-11T23:17:41.164Z,99.90
2023-06-11T23:20:09.525Z,99.90
2023-06-11T23:22:38.109Z,99.90
2023-06-11T23:25:05.799Z,99.90
2023-06-11T23:27:34.537Z,99.90
2023-06-11T23:30:02.736Z,99.90
2023-06-11T23:32:30.200Z,99.90
2023-06-11T23:35:01.028Z,99.90
2023-06-11T23:37:28.622Z,99.90
2023-06-11T23:39:56.573Z,99.90
2023-06-11T23:42:23.518Z,99.90
2023-06-11T23:44:51.213Z,99.90
2023-06-11T23:47:18.164Z,99.90
2023-06-11T23:49:45.120Z,99.90
2023-06-11T23:52:11.985Z,99.90
2023-06-11T23:54:39.086Z,99.90
2023-06-11T23:57:06.440Z,99.90
2023-06-11T23:59:33.398Z,99.90
